Impacts METAR Board
IDs:

KHOU - Houston/Hobby Arpt, TX, US

Updated at: 2000 UTC 23 Jan 2020
Potential Impact None Slight Moderate High
Time 23/08Z 23/09Z 23/10Z 23/11Z 23/12Z 23/13Z 23/14Z 23/15Z 23/16Z 23/17Z 23/18Z 23/19Z 23/20Z
Temp61 61 61 61 61 60 60 60 62 62 63 62 62
Dewpt59 59 59 59 57 57 56 55 55 54 53 53 52
Altim29.87 29.86 29.87 29.87 29.88 29.90 29.92 29.95 29.95 29.97 29.96 29.95 29.95
VIS10 10 10 10 9 10 10 10 10 10 10 10 10
CIG20 13 12 15 13 13 10 12 15 16 20 20 22
CoverOVCOVCOVCOVCOVCOVCOVCOVCOVCOVCOVCOVCOVC
FltCatMVFRMVFRMVFRMVFRMVFRMVFRMVFRMVFRMVFRMVFRMVFRMVFRMVFR
WX--------------------------
WDir700210280270300260270290290290330330
WSpd5 0 4 6 6 5 5 7 10 9 9 13 16
WGst-- -- -- -- -- -- -- -- -- -- -- -- --
R04/22
XWnd -2 VRB -1 5 4 5 3 5 9 8 8 12 15
HWnd 4 VRB -4 -3 -4 -1 -4 -5 -4 -4 -4 4 4
R12/30
XWnd 4 VRB -4 -3 -4 -1 -4 -5 -4 -4 -4 4 4
HWnd 2 VRB 1 -5 -4 -5 -3 -5 -9 -8 -8 -12 -15
R17/35
XWnd 5 VRB -2 -6 -6 -4 -5 -7 -9 -8 -8 -6 -8
HWnd -2 VRB 3 -1 -0 -3 1 -0 -4 -3 -3 -11 -14
Raw hourly METARs
KHOU 230753Z 07005KT 10SM FEW008 BKN020 OVC035 16/15 A2987 RMK AO2 LTG DSNT SE RAEMM TSE16 SLP120 P0007 T01610150 $
KHOU 230853Z 00000KT 10SM FEW007 BKN013 OVC025 16/15 A2986 RMK AO2 SLP117 BINOVC 60050 T01610150 56013 $
KHOU 230953Z 21004KT 10SM OVC012 16/15 A2987 RMK AO2 SLP120 T01610150 $
KHOU 231053Z 28006KT 10SM FEW007 OVC015 16/15 A2987 RMK AO2 SLP121 T01610150 $
KHOU 231153Z 27006KT 9SM FEW007 OVC013 16/14 A2988 RMK AO2 SLP123 60050 70180 T01610139 10167 20161 52006 $
KHOU 231253Z 30005KT 10SM OVC013 16/14 A2990 RMK AO2 SLP130 BINOVC T01560139
KHOU 231353Z 26005KT 10SM OVC010 16/13 A2992 RMK AO2 SLP138 T01560133
KHOU 231453Z 27007KT 10SM OVC012 16/13 A2995 RMK AO2 SLP145 BINOVC T01560128 52021
KHOU 231553Z 29010KT 10SM OVC015 17/13 A2995 RMK AO2 SLP148 T01670128
KHOU 231653Z 29009KT 10SM OVC016 17/12 A2997 RMK AO2 SLP153 BINOVC T01670122
KHOU 231753Z 29009KT 10SM OVC020 17/12 A2996 RMK AO2 SLP151 T01720117 10172 20156 50007
KHOU 231853Z 33013KT 10SM OVC020 17/12 A2995 RMK AO2 SLP146 T01670117
KHOU 231953Z 33016KT 10SM OVC022 17/11 A2995 RMK AO2 SLP145 T01670111



Page loaded:  20:04 UTC  |   12:04 PM Pacific  |   01:04 PM Mountain  |   02:04 PM Central  |   03:04 PM Eastern

 

ADVISORIES

FORECASTS

FORECASTS

OBSERVATIONS

USER TOOLS

ABOUT US